createdAt,value
2023-04-24T00:00:52.053Z,10.00
2023-04-24T00:06:00.222Z,10.10
2023-04-24T00:11:04.266Z,10.00
2023-04-24T00:16:08.207Z,9.90
2023-04-24T00:21:14.204Z,9.90
2023-04-24T00:26:17.770Z,9.90
2023-04-24T00:31:21.462Z,10.00
2023-04-24T00:36:26.446Z,10.00
2023-04-24T00:41:30.886Z,9.90
2023-04-24T00:46:35.257Z,9.90
2023-04-24T00:51:41.759Z,9.90
2023-04-24T00:56:46.060Z,9.90
2023-04-24T01:01:49.862Z,9.90
2023-04-24T01:06:55.278Z,9.90
2023-04-24T01:11:58.701Z,9.80
2023-04-24T01:17:03.478Z,9.80
2023-04-24T01:22:15.370Z,9.70
2023-04-24T01:27:18.692Z,9.70
2023-04-24T01:32:22.543Z,9.60
2023-04-24T01:37:27.961Z,9.50
2023-04-24T01:42:32.387Z,9.30
2023-04-24T01:47:37.194Z,9.10
2023-04-24T01:52:41.840Z,9.00
2023-04-24T01:57:52.154Z,9.10
2023-04-24T02:02:56.582Z,9.10
2023-04-24T02:08:06.015Z,9.20
2023-04-24T02:13:09.415Z,9.30
2023-04-24T02:18:13.872Z,9.30
2023-04-24T02:23:18.502Z,9.30
2023-04-24T02:28:22.850Z,9.30
2023-04-24T02:33:26.303Z,9.20
2023-04-24T02:38:31.211Z,9.20
2023-04-24T02:43:34.723Z,9.10
2023-04-24T02:48:38.106Z,9.10
2023-04-24T02:53:43.075Z,9.10
2023-04-24T02:58:46.502Z,9.20
2023-04-24T03:03:50.739Z,9.20
2023-04-24T03:08:55.777Z,9.10
2023-04-24T03:13:59.062Z,9.10
2023-04-24T03:19:02.189Z,9.10
2023-04-24T03:24:08.121Z,9.10
2023-04-24T03:29:11.531Z,9.10
2023-04-24T03:34:18.522Z,9.10
2023-04-24T03:39:23.251Z,9.10
2023-04-24T03:44:28.489Z,9.00
2023-04-24T03:49:31.621Z,8.80
2023-04-24T03:54:36.319Z,8.80
2023-04-24T03:59:45.678Z,8.80
2023-04-24T04:04:49.202Z,9.00
2023-04-24T04:09:55.386Z,8.90
2023-04-24T04:14:59.620Z,8.80
2023-04-24T04:20:06.764Z,8.70
2023-04-24T04:25:12.630Z,8.60
2023-04-24T04:30:17.196Z,8.70
2023-04-24T04:35:23.151Z,8.70
2023-04-24T04:40:28.916Z,8.70
2023-04-24T04:45:33.929Z,8.70
2023-04-24T04:50:37.368Z,8.70
2023-04-24T04:55:44.601Z,8.70
2023-04-24T05:00:50.528Z,8.70
2023-04-24T05:05:53.968Z,8.70
2023-04-24T05:10:58.632Z,8.70
2023-04-24T05:32:34.331Z,8.60
2023-04-24T05:37:39.522Z,8.40
2023-04-24T05:42:43.121Z,8.40
2023-04-24T05:47:47.926Z,8.30
2023-04-24T05:52:55.665Z,8.40
2023-04-24T05:58:00.453Z,8.50
2023-04-24T06:03:08.006Z,8.70
2023-04-24T06:08:12.539Z,9.10
2023-04-24T06:13:16.133Z,9.40
2023-04-24T06:18:22.950Z,9.70
2023-04-24T06:23:26.271Z,10.40
2023-04-24T06:28:34.164Z,10.70
2023-04-24T06:33:38.676Z,10.30
2023-04-24T06:38:41.932Z,11.70
2023-04-24T06:43:45.910Z,15.00
2023-04-24T06:48:52.596Z,18.30
2023-04-24T06:53:57.077Z,19.20
2023-04-24T06:59:02.689Z,18.50
2023-04-24T07:04:09.636Z,17.40
2023-04-24T07:09:22.715Z,18.40
2023-04-24T07:14:26.605Z,18.40
2023-04-24T07:19:32.739Z,15.50
2023-04-24T07:24:36.132Z,13.20
2023-04-24T07:29:49.704Z,11.80
2023-04-24T07:34:55.009Z,11.40
2023-04-24T07:39:58.431Z,11.30
2023-04-24T07:45:04.104Z,12.00
2023-04-24T07:50:09.317Z,12.90
2023-04-24T07:55:20.849Z,13.40
2023-04-24T08:00:29.692Z,13.30
2023-04-24T08:05:34.520Z,13.90
2023-04-24T08:10:38.820Z,14.70
2023-04-24T08:15:42.884Z,15.50
2023-04-24T08:20:47.668Z,14.30
2023-04-24T08:25:51.431Z,14.10
2023-04-24T08:30:59.606Z,13.30
2023-04-24T08:36:04.735Z,12.90
2023-04-24T08:41:22.938Z,12.20
2023-04-24T08:46:27.538Z,12.70
2023-04-24T08:51:43.349Z,13.00
2023-04-24T08:56:49.643Z,12.40
2023-04-24T09:01:58.331Z,11.90
2023-04-24T09:07:03.761Z,13.60
2023-04-24T09:12:12.216Z,16.50
2023-04-24T09:17:17.395Z,17.90
2023-04-24T09:22:26.769Z,17.40
2023-04-24T09:27:43.557Z,15.90
2023-04-24T09:32:55.125Z,16.40
2023-04-24T09:38:02.220Z,16.70
2023-04-24T09:43:05.493Z,15.40
2023-04-24T09:48:12.033Z,14.00
2023-04-24T09:53:16.785Z,14.10
2023-04-24T09:58:27.569Z,16.70
2023-04-24T10:03:37.014Z,18.60
2023-04-24T10:08:44.012Z,16.90
2023-04-24T10:13:52.382Z,14.10
2023-04-24T10:19:02.525Z,13.70
2023-04-24T10:24:16.961Z,14.90
2023-04-24T10:29:22.548Z,15.90
2023-04-24T10:34:27.915Z,15.60
2023-04-24T10:39:34.655Z,16.10
2023-04-24T10:44:42.866Z,15.00
2023-04-24T10:49:53.450Z,14.30
2023-04-24T10:55:04.216Z,13.70
2023-04-24T11:00:21.505Z,13.40
2023-04-24T11:05:52.698Z,12.70
2023-04-24T11:11:04.108Z,12.50
2023-04-24T11:16:30.127Z,12.50
2023-04-24T11:21:46.942Z,13.30
2023-04-24T11:26:55.299Z,14.20
2023-04-24T11:32:00.424Z,14.40
2023-04-24T11:37:04.529Z,13.80
2023-04-24T11:42:14.906Z,13.00
2023-04-24T11:53:02.257Z,12.60
2023-04-24T11:58:28.549Z,13.10
2023-04-24T12:03:35.134Z,12.80
2023-04-24T12:08:38.995Z,13.00
2023-04-24T12:13:47.009Z,12.70
2023-04-24T12:18:50.390Z,12.30
2023-04-24T12:23:58.931Z,12.20
2023-04-24T12:29:20.027Z,12.40
2023-04-24T12:34:26.579Z,12.80
2023-04-24T12:39:36.680Z,12.60
2023-04-24T12:50:10.969Z,11.50
2023-04-24T12:55:14.366Z,11.50
2023-04-24T13:00:20.411Z,12.50
2023-04-24T13:05:31.336Z,13.80
2023-04-24T13:10:34.546Z,14.00
2023-04-24T13:15:42.634Z,14.50
2023-04-24T13:20:48.431Z,14.40
2023-04-24T13:25:59.485Z,13.50
2023-04-24T13:31:05.267Z,13.50
2023-04-24T13:36:08.690Z,13.20
2023-04-24T13:41:15.138Z,13.10
2023-04-24T13:46:20.081Z,13.10
2023-04-24T13:51:25.178Z,13.10
2023-04-24T13:56:30.097Z,13.20
2023-04-24T14:01:34.760Z,13.20
2023-04-24T14:06:37.899Z,13.30
2023-04-24T14:11:41.723Z,13.10
2023-04-24T14:16:46.322Z,13.00
2023-04-24T14:21:50.751Z,12.90
2023-04-24T14:26:53.965Z,12.50
2023-04-24T14:32:00.782Z,12.10
2023-04-24T14:37:04.409Z,12.10
2023-04-24T14:42:09.377Z,12.00
2023-04-24T14:47:13.979Z,12.00
2023-04-24T14:52:17.327Z,12.20
2023-04-24T14:57:22.738Z,12.20
2023-04-24T15:02:27.631Z,12.20
2023-04-24T15:07:32.062Z,12.00
2023-04-24T15:12:35.785Z,12.00
2023-04-24T15:17:40.385Z,12.00
2023-04-24T15:22:50.737Z,12.10
2023-04-24T15:27:55.825Z,12.20
2023-04-24T15:33:02.294Z,12.10
2023-04-24T15:38:05.907Z,12.20
2023-04-24T15:43:11.922Z,12.30
2023-04-24T15:48:16.561Z,12.30
2023-04-24T15:53:22.316Z,12.30
2023-04-24T15:58:25.836Z,12.20
2023-04-24T16:03:32.544Z,12.10
2023-04-24T16:08:38.793Z,12.20
2023-04-24T16:13:42.365Z,12.20
2023-04-24T16:18:48.023Z,12.30
2023-04-24T16:23:51.482Z,12.40
2023-04-24T16:28:59.264Z,12.30
2023-04-24T16:34:03.762Z,12.10
2023-04-24T16:50:09.920Z,11.80
2023-04-24T16:55:16.141Z,11.60
2023-04-24T17:00:20.090Z,11.60
2023-04-24T17:05:31.759Z,11.50
2023-04-24T17:10:44.013Z,11.60
2023-04-24T17:15:55.517Z,11.60
2023-04-24T17:21:02.594Z,11.70
2023-04-24T17:26:07.777Z,11.70
2023-04-24T17:31:11.639Z,11.40
2023-04-24T17:36:16.568Z,11.20
2023-04-24T17:41:21.872Z,10.90
2023-04-24T17:46:25.322Z,10.60
2023-04-24T17:51:31.265Z,10.20
2023-04-24T17:56:35.875Z,10.00
2023-04-24T18:01:41.323Z,9.80
2023-04-24T18:06:47.748Z,9.70
2023-04-24T18:11:55.448Z,9.50
2023-04-24T18:16:59.064Z,9.30
2023-04-24T18:22:05.070Z,9.40
2023-04-24T18:27:08.541Z,9.50
2023-04-24T18:32:14.422Z,9.50
2023-04-24T18:37:19.238Z,9.60
2023-04-24T18:47:52.085Z,9.50
2023-04-24T18:52:57.160Z,9.30
2023-04-24T18:58:00.616Z,9.00
2023-04-24T19:03:05.658Z,8.80
2023-04-24T19:08:10.413Z,8.70
2023-04-24T19:13:15.575Z,8.60
2023-04-24T19:18:19.827Z,8.50
2023-04-24T19:23:32.178Z,8.60
2023-04-24T19:28:39.086Z,8.50
2023-04-24T19:33:48.423Z,8.50
2023-04-24T19:38:53.340Z,8.50
2023-04-24T19:43:56.629Z,8.40
2023-04-24T19:49:02.312Z,8.40
2023-04-24T19:54:08.112Z,8.30
2023-04-24T19:59:12.989Z,8.10
2023-04-24T20:04:16.629Z,8.00
2023-04-24T20:09:21.577Z,7.70
2023-04-24T20:14:26.975Z,7.50
2023-04-24T20:19:33.548Z,7.30
2023-04-24T20:24:39.705Z,7.10
2023-04-24T20:29:43.179Z,6.90
2023-04-24T20:34:47.478Z,6.70
2023-04-24T20:39:52.628Z,6.60
2023-04-24T20:44:56.002Z,6.40
2023-04-24T20:50:03.000Z,6.30
2023-04-24T20:55:09.588Z,6.20
2023-04-24T21:00:16.561Z,6.20
2023-04-24T21:05:26.239Z,6.40
2023-04-24T21:10:37.307Z,6.60
2023-04-24T21:15:55.133Z,6.90
2023-04-24T21:21:08.261Z,7.10
2023-04-24T21:26:14.460Z,7.20
2023-04-24T21:31:20.259Z,7.20
2023-04-24T21:36:32.316Z,7.20
2023-04-24T21:41:38.762Z,7.20
2023-04-24T21:46:43.026Z,7.20
2023-04-24T21:51:46.556Z,7.20
2023-04-24T21:56:52.401Z,7.20
2023-04-24T22:02:02.778Z,7.10
2023-04-24T22:07:24.143Z,7.10
2023-04-24T22:12:28.786Z,7.20
2023-04-24T22:17:33.741Z,7.20
2023-04-24T22:22:37.997Z,7.10
2023-04-24T22:27:42.868Z,7.10
2023-04-24T22:32:46.333Z,7.00
2023-04-24T22:37:57.095Z,6.90
2023-04-24T22:43:13.447Z,6.90
2023-04-24T22:48:17.142Z,6.90
2023-04-24T22:53:22.456Z,6.90
2023-04-24T22:58:28.082Z,6.80
2023-04-24T23:03:33.444Z,6.90
2023-04-24T23:08:39.227Z,6.90
2023-04-24T23:13:52.427Z,6.80
2023-04-24T23:18:55.965Z,6.70
2023-04-24T23:24:07.715Z,6.70
2023-04-24T23:29:18.825Z,6.70
2023-04-24T23:34:22.280Z,6.70
2023-04-24T23:39:34.068Z,6.70
2023-04-24T23:44:48.321Z,6.70
2023-04-24T23:49:54.413Z,6.60
2023-04-24T23:54:58.309Z,6.60
